createdAt,value
2018-04-10T00:00:40.607Z,96471.70
2018-04-10T00:03:08.069Z,96458.06
2018-04-10T00:05:35.499Z,96464.61
2018-04-10T00:08:02.967Z,96465.97
2018-04-10T00:10:30.403Z,96471.54
2018-04-10T00:12:57.853Z,96468.81
2018-04-10T00:15:25.322Z,96471.41
2018-04-10T00:17:52.803Z,96471.47
2018-04-10T00:20:20.287Z,96466.91
2018-04-10T00:22:47.730Z,96462.16
2018-04-10T00:25:15.180Z,96457.48
2018-04-10T00:27:42.625Z,96464.03
2018-04-10T00:30:10.076Z,96461.91
2018-04-10T00:32:37.542Z,96467.59
2018-04-10T00:35:04.992Z,96475.78
2018-04-10T00:37:32.442Z,96468.33
2018-04-10T00:39:59.881Z,96468.28
2018-04-10T00:42:27.343Z,96473.25
2018-04-10T00:44:54.767Z,96474.56
2018-04-10T00:47:22.234Z,96469.97
2018-04-10T00:49:49.667Z,96472.78
2018-04-10T00:52:17.131Z,96467.94
2018-04-10T00:54:44.594Z,96471.53
2018-04-10T00:57:12.055Z,96469.12
2018-04-10T00:59:39.511Z,96470.98
2018-04-10T01:02:06.971Z,96474.48
2018-04-10T01:04:34.434Z,96474.75
2018-04-10T01:07:01.902Z,96467.03
2018-04-10T01:09:29.366Z,96466.82
2018-04-10T01:11:56.826Z,96469.46
2018-04-10T01:14:24.276Z,96468.36
2018-04-10T01:16:51.736Z,96468.23
2018-04-10T01:19:19.205Z,96467.72
2018-04-10T01:21:46.663Z,96471.50
2018-04-10T01:24:14.139Z,96471.16
2018-04-10T01:26:41.594Z,96477.25
2018-04-10T01:29:09.058Z,96474.44
2018-04-10T01:31:36.512Z,96473.63
2018-04-10T01:34:03.948Z,96473.23
2018-04-10T01:36:31.405Z,96477.29
2018-04-10T01:38:58.830Z,96474.05
2018-04-10T01:41:26.279Z,96469.75
2018-04-10T01:43:53.717Z,96472.97
2018-04-10T01:46:21.183Z,96474.06
2018-04-10T01:48:48.605Z,96472.41
2018-04-10T01:51:16.050Z,96476.06
2018-04-10T01:53:43.495Z,96474.72
2018-04-10T01:56:10.950Z,96478.66
2018-04-10T01:58:38.381Z,96479.92
2018-04-10T02:01:05.867Z,96479.76
2018-04-10T02:03:33.311Z,96477.95
2018-04-10T02:06:00.736Z,96478.13
2018-04-10T02:08:28.248Z,96480.77
2018-04-10T02:10:55.674Z,96478.75
2018-04-10T02:13:23.120Z,96474.02
2018-04-10T02:15:50.544Z,96477.39
2018-04-10T02:18:18.002Z,96481.95
2018-04-10T02:20:45.496Z,96485.11
2018-04-10T02:23:12.924Z,96475.88
2018-04-10T02:25:40.370Z,96475.14
2018-04-10T02:28:07.824Z,96473.00
2018-04-10T02:30:35.337Z,96480.77
2018-04-10T02:33:02.782Z,96481.90
2018-04-10T02:35:30.218Z,96480.44
2018-04-10T02:37:57.687Z,96482.69
2018-04-10T02:40:25.122Z,96478.34
2018-04-10T02:42:52.570Z,96483.87
2018-04-10T02:45:20.049Z,96480.94
2018-04-10T02:47:47.488Z,96478.86
2018-04-10T02:50:14.922Z,96483.98
2018-04-10T02:52:42.367Z,96481.39
2018-04-10T02:55:09.797Z,96478.69
2018-04-10T02:57:37.310Z,96484.83
2018-04-10T03:00:04.751Z,96482.17
2018-04-10T03:02:32.197Z,96479.25
2018-04-10T03:04:59.721Z,96482.29
2018-04-10T03:07:27.175Z,96475.53
2018-04-10T03:09:54.617Z,96474.80
2018-04-10T03:12:22.042Z,96471.65
2018-04-10T03:14:49.487Z,96473.05
2018-04-10T03:17:16.916Z,96472.66
2018-04-10T03:19:44.384Z,96470.02
2018-04-10T03:22:11.815Z,96477.08
2018-04-10T03:24:39.280Z,96464.59
2018-04-10T03:27:06.733Z,96467.09
2018-04-10T03:29:34.164Z,96460.73
2018-04-10T03:32:01.648Z,96459.48
2018-04-10T03:34:29.167Z,96458.02
2018-04-10T03:36:56.605Z,96443.16
2018-04-10T03:39:24.051Z,96440.23
2018-04-10T03:41:51.516Z,96429.31
2018-04-10T03:44:18.954Z,96423.73
2018-04-10T03:46:46.395Z,96414.62
2018-04-10T03:49:13.833Z,96415.45
2018-04-10T03:51:41.370Z,96403.56
2018-04-10T03:54:08.894Z,96385.00
2018-04-10T03:56:36.355Z,96379.63
2018-04-10T03:59:03.857Z,96368.16
2018-04-10T04:01:31.297Z,96371.09
2018-04-10T04:03:58.761Z,96367.20
2018-04-10T04:06:27.076Z,96378.48
2018-04-10T04:08:54.560Z,96372.23
2018-04-10T04:11:21.987Z,96373.89
2018-04-10T04:13:49.468Z,96369.37
2018-04-10T04:16:28.949Z,96376.14
2018-04-10T04:19:08.166Z,96386.30
2018-04-10T04:24:37.041Z,96377.70
2018-04-10T04:27:04.482Z,96374.98
2018-04-10T04:29:31.947Z,96375.77
2018-04-10T04:31:59.369Z,96377.47
2018-04-10T04:34:26.863Z,96385.78
2018-04-10T04:36:54.299Z,96398.41
2018-04-10T04:39:21.751Z,96399.45
2018-04-10T04:41:49.452Z,96396.39
2018-04-10T04:44:16.918Z,96395.63
2018-04-10T04:46:44.416Z,96392.54
2018-04-10T04:49:11.864Z,96388.42
2018-04-10T04:51:39.314Z,96391.08
2018-04-10T04:54:06.844Z,96384.41
2018-04-10T04:56:34.328Z,96394.20
2018-04-10T04:59:02.605Z,96398.17
2018-04-10T05:01:30.142Z,96403.45
2018-04-10T05:03:57.604Z,96406.45
2018-04-10T05:06:25.089Z,96407.22
2018-04-10T05:08:52.526Z,96408.88
2018-04-10T05:11:19.983Z,96412.38
2018-04-10T05:13:47.428Z,96415.50
2018-04-10T05:16:14.910Z,96413.37
2018-04-10T05:18:42.427Z,96421.44
2018-04-10T05:21:09.972Z,96416.83
2018-04-10T05:23:38.049Z,96412.34
2018-04-10T05:26:05.556Z,96417.16
2018-04-10T05:28:33.055Z,96411.48
2018-04-10T05:31:00.560Z,96411.55
2018-04-10T05:33:27.961Z,96417.63
2018-04-10T05:35:55.790Z,96417.63
2018-04-10T05:38:23.224Z,96427.92
2018-04-10T05:40:50.692Z,96424.41
2018-04-10T05:43:18.147Z,96429.32
2018-04-10T05:45:45.584Z,96434.31
2018-04-10T05:48:13.064Z,96437.77
2018-04-10T05:50:40.490Z,96442.14
2018-04-10T05:53:07.980Z,96442.93
2018-04-10T05:55:35.377Z,96434.27
2018-04-10T05:58:02.923Z,96436.10
2018-04-10T06:00:30.355Z,96428.65
2018-04-10T06:02:57.819Z,96435.48
2018-04-10T06:05:25.245Z,96430.22
2018-04-10T06:07:52.748Z,96426.42
2018-04-10T06:10:20.217Z,96425.36
2018-04-10T06:12:47.686Z,96421.41
2018-04-10T06:15:15.164Z,96427.66
2018-04-10T06:17:42.670Z,96433.03
2018-04-10T06:20:10.118Z,96434.60
2018-04-10T06:22:37.614Z,96433.08
2018-04-10T06:25:05.073Z,96439.41
2018-04-10T06:27:32.612Z,96433.98
2018-04-10T06:30:00.067Z,96435.09
2018-04-10T06:32:27.519Z,96434.33
2018-04-10T06:34:55.469Z,96433.53
2018-04-10T06:37:22.954Z,96440.06
2018-04-10T06:39:50.407Z,96434.72
2018-04-10T06:42:17.871Z,96430.76
2018-04-10T06:44:45.306Z,96437.44
2018-04-10T06:47:12.791Z,96436.59
2018-04-10T06:49:40.261Z,96438.01
2018-04-10T06:52:07.742Z,96440.77
2018-04-10T06:54:35.175Z,96430.32
2018-04-10T06:57:02.644Z,96432.95
2018-04-10T06:59:30.101Z,96438.97
2018-04-10T07:01:57.581Z,96434.78
2018-04-10T07:04:25.007Z,96434.37
2018-04-10T07:06:52.464Z,96432.27
2018-04-10T07:09:19.943Z,96427.26
2018-04-10T07:11:47.379Z,96429.88
2018-04-10T07:14:14.828Z,96424.69
2018-04-10T07:16:46.521Z,96428.80
2018-04-10T07:19:13.988Z,96435.86
2018-04-10T07:21:41.428Z,96433.65
2018-04-10T07:24:08.988Z,96428.53
2018-04-10T07:26:36.589Z,96427.81
2018-04-10T07:29:04.303Z,96430.16
2018-04-10T07:31:31.837Z,96427.20
2018-04-10T07:33:59.571Z,96427.76
2018-04-10T07:36:27.108Z,96421.61
2018-04-10T07:38:54.548Z,96427.87
2018-04-10T07:41:22.001Z,96421.77
2018-04-10T07:43:49.474Z,96423.97
2018-04-10T07:46:16.925Z,96420.80
2018-04-10T07:48:44.388Z,96424.40
2018-04-10T07:51:11.847Z,96420.17
2018-04-10T07:53:40.111Z,96425.98
2018-04-10T07:56:08.017Z,96427.91
2018-04-10T07:58:35.468Z,96418.78
2018-04-10T08:01:02.926Z,96412.23
2018-04-10T08:03:30.458Z,96407.16
2018-04-10T08:05:57.967Z,96412.86
2018-04-10T08:08:25.527Z,96407.86
2018-04-10T08:10:53.110Z,96420.70
2018-04-10T08:13:20.537Z,96419.83
2018-04-10T08:15:47.976Z,96416.99
2018-04-10T08:18:15.467Z,96418.90
2018-04-10T08:20:42.916Z,96421.20
2018-04-10T08:23:10.367Z,96423.09
2018-04-10T08:25:37.798Z,96424.58
2018-04-10T08:28:05.327Z,96424.50
2018-04-10T08:30:32.751Z,96420.37
2018-04-10T08:33:00.208Z,96415.87
2018-04-10T08:35:27.646Z,96419.37
2018-04-10T08:37:55.120Z,96415.45
2018-04-10T08:40:22.527Z,96413.45
2018-04-10T08:42:50.075Z,96411.63
2018-04-10T08:45:17.495Z,96407.23
2018-04-10T08:47:44.923Z,96412.55
2018-04-10T08:50:12.408Z,96406.73
2018-04-10T08:52:39.865Z,96413.61
2018-04-10T08:55:07.323Z,96413.80
2018-04-10T08:57:34.751Z,96415.42
2018-04-10T09:00:02.198Z,96419.13
2018-04-10T09:02:29.673Z,96425.95
2018-04-10T09:04:57.595Z,96424.55
2018-04-10T09:07:25.035Z,96422.84
2018-04-10T09:09:52.499Z,96432.39
2018-04-10T09:12:19.923Z,96426.50
2018-04-10T09:14:47.399Z,96425.28
2018-04-10T09:17:14.867Z,96420.23
2018-04-10T09:19:42.293Z,96428.29
2018-04-10T09:22:09.735Z,96422.25
2018-04-10T09:24:37.164Z,96424.18
2018-04-10T09:27:04.632Z,96419.06
2018-04-10T09:29:32.056Z,96411.40
2018-04-10T09:31:59.506Z,96402.15
2018-04-10T09:34:26.939Z,96397.64
2018-04-10T09:36:54.395Z,96389.45
2018-04-10T09:39:21.822Z,96380.86
2018-04-10T09:41:49.290Z,96381.29
2018-04-10T09:44:16.719Z,96376.92
2018-04-10T09:46:44.173Z,96366.92
2018-04-10T09:49:12.199Z,96373.16
2018-04-10T09:51:39.682Z,96365.78
2018-04-10T09:54:07.097Z,96365.86
2018-04-10T09:56:34.572Z,96361.17
2018-04-10T09:59:02.007Z,96358.92
2018-04-10T10:01:29.473Z,96373.09
2018-04-10T10:03:56.908Z,96368.38
2018-04-10T10:06:24.392Z,96372.25
2018-04-10T10:08:51.837Z,96374.86
2018-04-10T10:11:19.295Z,96377.33
2018-04-10T10:13:46.713Z,96374.17
2018-04-10T10:16:14.173Z,96376.09
2018-04-10T10:18:41.635Z,96374.33
2018-04-10T10:21:09.088Z,96376.59
2018-04-10T10:23:36.539Z,96374.88
2018-04-10T10:26:04.061Z,96380.98
2018-04-10T10:28:31.519Z,96372.58
2018-04-10T10:30:58.944Z,96377.11
2018-04-10T10:33:26.424Z,96374.85
2018-04-10T10:35:53.830Z,96371.92
2018-04-10T10:38:21.274Z,96369.46
2018-04-10T10:40:48.701Z,96364.38
2018-04-10T10:43:16.153Z,96364.98
2018-04-10T10:45:43.610Z,96358.14
2018-04-10T10:48:11.039Z,96353.11
2018-04-10T10:50:38.533Z,96350.77
2018-04-10T10:53:05.964Z,96352.34
2018-04-10T10:55:33.440Z,96354.75
2018-04-10T10:58:00.929Z,96360.92
2018-04-10T11:00:28.362Z,96363.29
2018-04-10T11:02:55.803Z,96351.20
2018-04-10T11:05:23.313Z,96350.40
2018-04-10T11:07:50.795Z,96356.35
2018-04-10T11:10:18.199Z,96345.23
2018-04-10T11:12:45.664Z,96340.61
2018-04-10T11:15:13.091Z,96342.56
2018-04-10T11:17:40.623Z,96334.08
2018-04-10T11:20:08.099Z,96341.34
2018-04-10T11:22:35.521Z,96330.02
2018-04-10T11:25:02.988Z,96323.83
2018-04-10T11:27:30.474Z,96323.19
2018-04-10T11:29:57.949Z,96320.25
2018-04-10T11:32:25.377Z,96308.39
2018-04-10T11:34:52.805Z,96302.23
2018-04-10T11:37:20.265Z,96294.26
2018-04-10T11:39:47.719Z,96294.23
2018-04-10T11:42:15.154Z,96292.62
2018-04-10T11:44:42.618Z,96292.23
2018-04-10T11:47:10.079Z,96288.36
2018-04-10T11:49:37.529Z,96289.41
2018-04-10T11:52:04.963Z,96292.39
2018-04-10T11:54:32.451Z,96295.16
2018-04-10T11:56:59.904Z,96297.50
2018-04-10T11:59:27.361Z,96298.05
2018-04-10T12:01:54.806Z,96299.64
2018-04-10T12:04:22.283Z,96297.33
2018-04-10T12:06:49.776Z,96296.62
2018-04-10T12:09:17.235Z,96295.80
2018-04-10T12:11:44.710Z,96298.77
2018-04-10T12:14:12.153Z,96299.78
2018-04-10T12:16:39.625Z,96298.63
2018-04-10T12:19:07.090Z,96298.20
2018-04-10T12:21:34.539Z,96298.66
2018-04-10T12:24:02.068Z,96280.80
2018-04-10T12:26:29.541Z,96278.80
2018-04-10T12:28:56.966Z,96266.92
2018-04-10T12:31:24.449Z,96269.84
2018-04-10T12:33:51.877Z,96269.37
2018-04-10T12:36:19.385Z,96268.85
2018-04-10T12:38:46.801Z,96265.05
2018-04-10T12:41:14.272Z,96265.19
2018-04-10T12:43:41.714Z,96264.73
2018-04-10T12:46:09.177Z,96255.98
2018-04-10T12:48:36.612Z,96249.23
2018-04-10T12:51:04.109Z,96248.81
2018-04-10T12:53:31.560Z,96240.80
2018-04-10T12:55:58.997Z,96244.53
2018-04-10T12:58:26.447Z,96237.47
2018-04-10T13:00:53.878Z,96235.95
2018-04-10T13:03:21.343Z,96235.40
2018-04-10T13:05:48.838Z,96240.95
2018-04-10T13:08:16.312Z,96243.77
2018-04-10T13:10:43.777Z,96233.26
2018-04-10T13:13:11.230Z,96236.09
2018-04-10T13:15:38.648Z,96234.60
2018-04-10T13:18:06.133Z,96236.73
2018-04-10T13:20:33.594Z,96232.73
2018-04-10T13:23:01.071Z,96231.19
2018-04-10T13:25:28.508Z,96231.89
2018-04-10T13:27:55.982Z,96224.19
2018-04-10T13:30:23.419Z,96223.67
2018-04-10T13:32:50.849Z,96217.75
2018-04-10T13:35:18.317Z,96208.38
2018-04-10T13:37:45.751Z,96214.94
2018-04-10T13:40:13.208Z,96213.49
2018-04-10T13:42:40.655Z,96214.42
2018-04-10T13:45:08.147Z,96226.20
2018-04-10T13:47:35.589Z,96212.91
2018-04-10T13:50:03.056Z,96219.78
2018-04-10T13:52:30.487Z,96214.09
2018-04-10T13:54:57.972Z,96219.41
2018-04-10T13:57:25.447Z,96216.32
2018-04-10T13:59:52.875Z,96216.91
2018-04-10T14:02:20.334Z,96209.53
2018-04-10T14:04:47.760Z,96202.02
2018-04-10T14:07:15.226Z,96206.28
2018-04-10T14:09:42.687Z,96210.75
2018-04-10T14:12:10.187Z,96210.19
2018-04-10T14:14:37.621Z,96208.81
2018-04-10T14:17:05.078Z,96210.06
2018-04-10T14:19:32.526Z,96215.69
2018-04-10T14:22:00.132Z,96217.84
2018-04-10T14:24:27.611Z,96217.52
2018-04-10T14:26:55.865Z,96217.68
2018-04-10T14:29:23.341Z,96222.66
2018-04-10T14:31:50.779Z,96222.63
2018-04-10T14:34:18.231Z,96227.55
2018-04-10T14:36:45.681Z,96232.67
2018-04-10T14:39:13.161Z,96238.69
2018-04-10T14:41:40.604Z,96243.36
2018-04-10T14:44:08.210Z,96240.23
2018-04-10T14:46:35.699Z,96231.52
2018-04-10T14:49:03.159Z,96229.63
2018-04-10T14:51:30.601Z,96218.31
2018-04-10T14:53:58.046Z,96209.32
2018-04-10T14:56:25.486Z,96207.52
2018-04-10T14:58:52.912Z,96202.64
2018-04-10T15:01:20.450Z,96202.56
2018-04-10T15:03:47.927Z,96198.58
2018-04-10T15:06:15.468Z,96196.95
2018-04-10T15:08:43.319Z,96197.05
2018-04-10T15:11:11.133Z,96201.36
2018-04-10T15:13:39.514Z,96207.87
2018-04-10T15:16:07.689Z,96213.93
2018-04-10T15:18:35.154Z,96222.14
2018-04-10T15:21:02.726Z,96224.16
2018-04-10T15:23:30.184Z,96225.58
2018-04-10T15:25:57.650Z,96231.87
2018-04-10T15:28:26.449Z,96239.25
2018-04-10T15:30:53.926Z,96254.52
2018-04-10T15:33:21.384Z,96279.31
2018-04-10T15:35:48.832Z,96295.05
2018-04-10T15:38:16.289Z,96308.32
2018-04-10T15:40:43.746Z,96311.25
2018-04-10T15:43:11.240Z,96314.89
2018-04-10T15:45:38.675Z,96338.12
2018-04-10T15:48:06.163Z,96366.50
2018-04-10T15:50:33.587Z,96370.84
2018-04-10T15:53:01.058Z,96355.48
2018-04-10T15:55:28.488Z,96324.16
2018-04-10T15:57:55.967Z,96298.83
2018-04-10T16:00:23.479Z,96303.55
2018-04-10T16:02:51.221Z,96338.59
2018-04-10T16:05:18.682Z,96358.36
2018-04-10T16:07:46.174Z,96394.81
2018-04-10T16:10:13.777Z,96426.20
2018-04-10T16:12:41.286Z,96454.98
2018-04-10T16:15:08.812Z,96477.52
2018-04-10T16:17:36.285Z,96506.52
2018-04-10T16:20:03.730Z,96505.45
2018-04-10T16:22:31.755Z,96489.84
2018-04-10T16:24:59.231Z,96469.39
2018-04-10T16:27:26.742Z,96459.81
2018-04-10T16:29:54.191Z,96456.55
2018-04-10T16:32:22.371Z,96451.55
2018-04-10T16:34:49.829Z,96462.53
2018-04-10T16:37:18.251Z,96477.03
2018-04-10T16:39:45.691Z,96472.05
2018-04-10T16:42:13.132Z,96467.88
2018-04-10T16:44:40.586Z,96463.45
2018-04-10T16:47:08.029Z,96486.71
2018-04-10T16:49:35.524Z,96541.80
2018-04-10T16:52:02.958Z,96545.22
2018-04-10T16:54:30.504Z,96512.30
2018-04-10T16:56:57.933Z,96501.31
2018-04-10T16:59:25.452Z,96522.03
2018-04-10T17:01:52.957Z,96513.88
2018-04-10T17:04:20.396Z,96466.38
2018-04-10T17:06:48.145Z,96452.66
2018-04-10T17:09:15.578Z,96484.84
2018-04-10T17:11:43.067Z,96501.59
2018-04-10T17:14:10.513Z,96503.94
2018-04-10T17:16:37.951Z,96510.48
2018-04-10T17:19:06.456Z,96530.52
2018-04-10T17:21:34.020Z,96550.75
2018-04-10T17:24:01.538Z,96565.60
2018-04-10T17:26:29.000Z,96574.55
2018-04-10T17:28:56.457Z,96580.69
2018-04-10T17:31:23.906Z,96587.66
2018-04-10T17:33:51.367Z,96596.07
2018-04-10T17:36:18.799Z,96602.06
2018-04-10T17:38:46.279Z,96608.12
2018-04-10T17:41:13.809Z,96618.39
2018-04-10T17:43:41.301Z,96624.33
2018-04-10T17:46:08.733Z,96631.19
2018-04-10T17:48:36.190Z,96635.95
2018-04-10T17:51:04.762Z,96644.26
2018-04-10T17:53:32.787Z,96646.55
2018-04-10T17:56:00.316Z,96643.47
2018-04-10T17:58:27.785Z,96646.55
2018-04-10T18:00:55.275Z,96655.30
2018-04-10T18:03:23.053Z,96649.53
2018-04-10T18:05:50.738Z,96655.51
2018-04-10T18:08:18.185Z,96655.55
2018-04-10T18:10:45.624Z,96651.62
2018-04-10T18:13:13.152Z,96653.27
2018-04-10T18:15:40.602Z,96649.33
2018-04-10T18:18:08.133Z,96662.20
2018-04-10T18:20:35.590Z,96666.48
2018-04-10T18:23:03.063Z,96664.51
2018-04-10T18:25:31.340Z,96669.74
2018-04-10T18:27:58.867Z,96678.83
2018-04-10T18:30:26.374Z,96676.19
2018-04-10T18:32:53.968Z,96677.52
2018-04-10T18:35:21.429Z,96672.16
2018-04-10T18:37:48.914Z,96674.49
2018-04-10T18:40:16.387Z,96677.05
2018-04-10T18:42:43.860Z,96690.52
2018-04-10T18:45:11.317Z,96696.77
2018-04-10T18:47:38.750Z,96704.30
2018-04-10T18:50:06.228Z,96713.78
2018-04-10T18:52:33.687Z,96720.11
2018-04-10T18:55:01.142Z,96726.34
2018-04-10T18:57:29.094Z,96735.61
2018-04-10T18:59:56.573Z,96740.73
2018-04-10T19:02:24.006Z,96735.00
2018-04-10T19:04:51.485Z,96728.20
2018-04-10T19:07:18.953Z,96729.35
2018-04-10T19:09:46.422Z,96729.66
2018-04-10T19:12:13.851Z,96719.68
2018-04-10T19:14:41.314Z,96726.62
2018-04-10T19:17:08.797Z,96725.07
2018-04-10T19:19:36.238Z,96727.20
2018-04-10T19:22:03.727Z,96725.70
2018-04-10T19:24:31.341Z,96729.78
2018-04-10T19:26:58.837Z,96730.97
2018-04-10T19:29:26.284Z,96710.83
2018-04-10T19:31:53.733Z,96697.98
2018-04-10T19:34:21.173Z,96703.98
2018-04-10T19:36:49.395Z,96716.56
2018-04-10T19:39:16.823Z,96702.17
2018-04-10T19:41:44.357Z,96703.84
2018-04-10T19:44:11.802Z,96721.13
2018-04-10T19:46:39.279Z,96714.92
2018-04-10T19:49:06.712Z,96715.31
2018-04-10T19:51:34.154Z,96718.24
2018-04-10T19:54:01.617Z,96723.64
2018-04-10T19:56:29.068Z,96724.66
2018-04-10T19:58:56.533Z,96717.45
2018-04-10T20:01:23.984Z,96710.22
2018-04-10T20:03:51.517Z,96716.28
2018-04-10T20:06:19.036Z,96712.17
2018-04-10T20:08:46.741Z,96719.03
2018-04-10T20:11:14.234Z,96729.59
2018-04-10T20:13:41.709Z,96726.73
2018-04-10T20:16:09.224Z,96731.99
2018-04-10T20:18:36.739Z,96733.50
2018-04-10T20:21:04.439Z,96733.98
2018-04-10T20:23:31.866Z,96733.72
2018-04-10T20:25:59.378Z,96734.92
2018-04-10T20:28:26.939Z,96742.77
2018-04-10T20:30:54.619Z,96735.14
2018-04-10T20:33:23.045Z,96735.02
2018-04-10T20:35:50.570Z,96731.82
2018-04-10T20:38:18.034Z,96727.55
2018-04-10T20:40:46.191Z,96728.56
2018-04-10T20:43:13.638Z,96723.13
2018-04-10T20:45:41.836Z,96718.76
2018-04-10T20:48:09.273Z,96718.97
2018-04-10T20:50:36.734Z,96713.09
2018-04-10T20:53:04.159Z,96713.50
2018-04-10T20:55:31.622Z,96715.42
2018-04-10T20:57:59.076Z,96716.03
2018-04-10T21:00:26.586Z,96711.75
2018-04-10T21:02:54.105Z,96708.75
2018-04-10T21:05:21.554Z,96705.42
2018-04-10T21:07:49.062Z,96702.95
2018-04-10T21:10:16.513Z,96708.58
2018-04-10T21:12:43.973Z,96709.86
2018-04-10T21:15:11.392Z,96700.98
2018-04-10T21:17:39.900Z,96705.83
2018-04-10T21:20:07.366Z,96701.75
2018-04-10T21:22:34.867Z,96713.39
2018-04-10T21:25:02.296Z,96715.05
2018-04-10T21:27:29.749Z,96725.75
2018-04-10T21:29:57.258Z,96722.50
2018-04-10T21:32:24.717Z,96719.89
2018-04-10T21:34:52.190Z,96725.70
2018-04-10T21:37:19.632Z,96724.31
2018-04-10T21:39:47.133Z,96725.30
2018-04-10T21:42:14.620Z,96727.05
2018-04-10T21:44:45.890Z,96724.81
2018-04-10T21:47:13.915Z,96719.02
2018-04-10T21:49:41.466Z,96718.08
2018-04-10T21:52:09.042Z,96723.55
2018-04-10T21:54:36.488Z,96727.05
2018-04-10T21:57:03.912Z,96724.47
2018-04-10T21:59:31.349Z,96724.73
2018-04-10T22:01:58.890Z,96727.59
2018-04-10T22:04:26.349Z,96726.84
2018-04-10T22:06:53.775Z,96729.88
2018-04-10T22:09:21.229Z,96732.45
2018-04-10T22:11:48.683Z,96733.00
2018-04-10T22:14:16.095Z,96737.91
2018-04-10T22:16:43.569Z,96735.57
2018-04-10T22:19:11.047Z,96738.02
2018-04-10T22:21:38.571Z,96739.63
2018-04-10T22:24:05.989Z,96741.30
2018-04-10T22:26:33.449Z,96742.64
2018-04-10T22:29:00.870Z,96737.57
2018-04-10T22:31:28.356Z,96747.86
2018-04-10T22:33:55.794Z,96746.28
2018-04-10T22:36:23.255Z,96747.80
2018-04-10T22:38:50.669Z,96744.56
2018-04-10T22:41:18.142Z,96741.23
2018-04-10T22:43:45.561Z,96743.11
2018-04-10T22:46:12.988Z,96740.74
2018-04-10T22:48:40.431Z,96737.02
2018-04-10T22:51:08.527Z,96742.14
2018-04-10T22:53:35.966Z,96737.71
2018-04-10T22:56:03.409Z,96742.78
2018-04-10T22:58:30.851Z,96740.01
2018-04-10T23:00:58.304Z,96736.36
2018-04-10T23:03:25.823Z,96741.59
2018-04-10T23:05:53.193Z,96745.66
2018-04-10T23:08:20.798Z,96744.47
2018-04-10T23:10:48.265Z,96753.07
2018-04-10T23:13:15.737Z,96751.67
2018-04-10T23:15:43.166Z,96746.68
2018-04-10T23:18:10.640Z,96754.98
2018-04-10T23:20:38.759Z,96758.58
2018-04-10T23:23:06.179Z,96756.03
2018-04-10T23:25:33.637Z,96756.34
2018-04-10T23:28:01.089Z,96770.90
2018-04-10T23:30:28.590Z,96759.41
2018-04-10T23:32:56.018Z,96760.53
2018-04-10T23:35:23.483Z,96764.56
2018-04-10T23:37:50.901Z,96766.95
2018-04-10T23:40:18.365Z,96770.43
2018-04-10T23:42:45.899Z,96766.38
2018-04-10T23:45:13.359Z,96765.92
2018-04-10T23:47:41.094Z,96773.73
2018-04-10T23:50:09.002Z,96778.63
2018-04-10T23:52:36.456Z,96773.44
2018-04-10T23:55:03.876Z,96775.67
2018-04-10T23:57:31.332Z,96783.10
2018-04-10T23:59:58.799Z,96784.98
